Flugplatz Tantawan/Saraburi (UL)

Hier findest Du alle Informationen zum Flugplatz Tantawan/Saraburi (UL).

Informationen für Piloten zum Flugplatz Tantawan/Saraburi

Hier findest Du alle relevanten Informationen, die Du als Pilot benötigst, um Tantawan/Saraburi anzufliegen.

Flugplatz: Tantawan/Saraburi ICAO-Code: UL Flugplatz
Frequenz Turm: 122,300 Mhz GAFOR Gebiet: -
Frequenz Ground: 122,300 Mhz Mogas: ja
Platzrunde: N 0 ft Landegebühr: 2,50 €
Platzhöhe: - Sunrise: 22:48 Uhr UTC
Pisten: 03/21 - 700 m x 30 m, GRAS Sunset: 11:50 Uhr UTC

Flugwetter am Flugplatz Tantawan/Saraburi

Die METAR Information stammen aus EDAH (7852.97 km entfernt).

METAR Code:
2024/06/07 07:50
EDAH 070750Z 03003KT 340V090 CAVOK 15/10 Q1017

Flugschulen am Flugplatz Tantawan/Saraburi

Am Flugplatz Tantawan/Saraburi gibt es leider keine Flugschule.

Jetzt anmelden

Passwort vergessen

Umfrage Archiv

Wie häufig haltet Ihr die Halbkreisflugregel ein?

Eher häufig!
36 %
Immer!
30.7 %
Hin und wieder!
16.7 %
Nie!
9.5 %
Eher selten!
7.2 %
Stimmen: 264 | Diskussion
Anzeige: Roland Aircraft
Statistik Alle Mitglieder

Aktuell sind 26 Besucher online, davon 3 Mitglieder und 23 Gäste.


Mitglieder online:
Steffen_E  Chris_EDNC  Sev11 

Anzeige: EasyVFR